createdAt,value
2018-03-24T00:00:20.163Z,1.70
2018-03-24T00:05:03.541Z,1.70
2018-03-24T00:09:47.164Z,1.60
2018-03-24T00:14:30.487Z,1.50
2018-03-24T00:19:13.845Z,1.40
2018-03-24T00:23:57.338Z,1.20
2018-03-24T00:28:41.471Z,1.20
2018-03-24T00:33:25.047Z,1.10
2018-03-24T00:38:09.149Z,1.00
2018-03-24T00:42:52.531Z,1.00
2018-03-24T00:47:36.674Z,0.90
2018-03-24T00:52:20.063Z,0.90
2018-03-24T00:57:04.210Z,0.60
2018-03-24T01:01:48.288Z,0.30
2018-03-24T01:06:31.742Z,0.30
2018-03-24T01:11:15.106Z,0.10
2018-03-24T01:15:58.423Z,-0.10
2018-03-24T01:20:41.816Z,-0.20
2018-03-24T01:25:25.175Z,-0.10
2018-03-24T01:30:08.556Z,-0.20
2018-03-24T01:34:51.943Z,-0.40
2018-03-24T01:39:36.016Z,-0.50
2018-03-24T01:44:19.380Z,-0.50
2018-03-24T01:49:03.512Z,-0.50
2018-03-24T01:53:52.929Z,-0.50
2018-03-24T01:58:36.639Z,-0.50
2018-03-24T02:03:20.789Z,-0.40
2018-03-24T02:08:04.134Z,-0.40
2018-03-24T02:12:48.408Z,-0.30
2018-03-24T02:17:32.562Z,-0.50
2018-03-24T02:22:16.739Z,-0.50
2018-03-24T02:27:00.320Z,-0.60
2018-03-24T02:31:43.676Z,-0.70
2018-03-24T02:36:27.297Z,-0.70
2018-03-24T02:41:10.645Z,-0.80
2018-03-24T02:45:54.093Z,-1.10
2018-03-24T02:50:37.449Z,-1.50
2018-03-24T02:55:20.850Z,-1.90
2018-03-24T03:00:04.367Z,-2.10
2018-03-24T03:04:48.489Z,-2.50
2018-03-24T03:09:31.914Z,-2.60
2018-03-24T03:14:15.355Z,-2.70
2018-03-24T03:18:58.722Z,-2.50
2018-03-24T03:23:42.082Z,-2.50
2018-03-24T03:28:26.318Z,-1.40
2018-03-24T03:33:09.728Z,-1.40
2018-03-24T03:37:53.143Z,-1.30
2018-03-24T03:42:37.359Z,-1.20
2018-03-24T03:47:20.769Z,-1.30
2018-03-24T03:52:04.082Z,-1.10
2018-03-24T03:56:47.415Z,-1.40
2018-03-24T04:01:31.803Z,-1.70
2018-03-24T04:06:16.103Z,-1.70
2018-03-24T04:10:59.403Z,-2.00
2018-03-24T04:15:42.785Z,-2.20
2018-03-24T04:20:26.128Z,-2.20
2018-03-24T04:25:09.455Z,-2.30
2018-03-24T04:29:53.109Z,-2.20
2018-03-24T04:34:36.490Z,-2.10
2018-03-24T04:39:20.599Z,-2.30
2018-03-24T04:44:03.948Z,-2.30
2018-03-24T04:48:47.311Z,-2.70
2018-03-24T04:53:30.607Z,-2.90
2018-03-24T04:58:13.957Z,-3.10
2018-03-24T05:02:57.309Z,-3.00
2018-03-24T05:07:40.732Z,-2.80
2018-03-24T05:12:24.084Z,-2.30
2018-03-24T05:17:07.432Z,-2.10
2018-03-24T05:21:50.809Z,-1.80
2018-03-24T05:26:34.129Z,-1.60
2018-03-24T05:31:17.522Z,-1.50
2018-03-24T05:36:00.917Z,-1.30
2018-03-24T05:40:44.346Z,-1.20
2018-03-24T05:45:27.734Z,-1.10
2018-03-24T05:50:11.843Z,-1.10
2018-03-24T05:54:55.159Z,-1.10
2018-03-24T05:59:38.494Z,-1.00
2018-03-24T06:04:22.756Z,-0.90
2018-03-24T06:09:06.943Z,-0.80
2018-03-24T06:13:50.513Z,-0.80
2018-03-24T06:18:33.850Z,-0.60
2018-03-24T06:23:17.287Z,-0.50
2018-03-24T06:28:00.727Z,-0.40
2018-03-24T06:32:44.135Z,-0.30
2018-03-24T06:37:27.509Z,-0.10
2018-03-24T06:42:10.844Z,0.10
2018-03-24T06:46:54.314Z,0.30
2018-03-24T06:51:38.479Z,0.70
2018-03-24T06:56:23.008Z,0.90
2018-03-24T07:01:06.339Z,0.90
2018-03-24T07:05:49.679Z,1.10
2018-03-24T07:10:33.096Z,1.20
2018-03-24T07:15:16.492Z,1.50
2018-03-24T07:19:59.866Z,1.80
2018-03-24T07:24:43.956Z,2.30
2018-03-24T07:29:28.108Z,2.60
2018-03-24T07:34:11.614Z,2.60
2018-03-24T07:38:55.334Z,2.90
2018-03-24T07:43:38.646Z,3.30
2018-03-24T07:48:22.048Z,3.60
2018-03-24T07:53:06.184Z,4.40
2018-03-24T07:57:49.549Z,4.40
2018-03-24T08:02:33.179Z,4.60
2018-03-24T08:07:16.510Z,5.00
2018-03-24T08:12:00.131Z,5.40
2018-03-24T08:16:43.511Z,5.90
2018-03-24T08:21:27.628Z,6.60
2018-03-24T08:26:10.970Z,6.60
2018-03-24T08:30:54.415Z,6.80
2018-03-24T08:35:38.174Z,7.20
2018-03-24T08:40:21.478Z,7.90
2018-03-24T08:45:04.859Z,8.20
2018-03-24T08:49:48.286Z,8.60
2018-03-24T08:54:32.103Z,8.80
2018-03-24T08:59:20.171Z,9.00
2018-03-24T09:04:03.684Z,9.30
2018-03-24T09:08:47.068Z,9.50
2018-03-24T09:13:30.423Z,9.60
2018-03-24T09:18:13.760Z,9.90
2018-03-24T09:22:57.104Z,10.20
2018-03-24T09:27:41.219Z,10.40
2018-03-24T09:32:24.679Z,10.30
2018-03-24T09:37:08.337Z,10.50
2018-03-24T09:41:51.715Z,10.90
2018-03-24T09:46:35.080Z,11.20
2018-03-24T09:51:18.459Z,11.80
2018-03-24T09:56:01.832Z,11.80
2018-03-24T10:00:45.152Z,11.10
2018-03-24T10:05:28.733Z,10.90
2018-03-24T10:10:16.922Z,10.80
2018-03-24T10:15:00.306Z,11.50
2018-03-24T10:19:46.979Z,12.80
2018-03-24T10:24:33.447Z,12.80
2018-03-24T10:29:17.784Z,13.30
2018-03-24T10:34:01.919Z,13.20
2018-03-24T10:38:45.216Z,12.70
2018-03-24T10:43:34.095Z,12.70
2018-03-24T10:48:18.272Z,12.90
2018-03-24T10:53:02.634Z,13.20
2018-03-24T10:57:46.722Z,13.40
2018-03-24T11:02:30.078Z,13.40
2018-03-24T11:07:13.546Z,13.50
2018-03-24T11:11:56.948Z,13.20
2018-03-24T11:16:40.853Z,12.80
2018-03-24T11:21:24.987Z,12.90
2018-03-24T11:26:08.337Z,12.90
2018-03-24T11:30:52.591Z,12.70
2018-03-24T11:35:36.026Z,12.70
2018-03-24T11:40:19.351Z,12.60
2018-03-24T11:45:02.725Z,12.40
2018-03-24T11:49:46.056Z,12.20
2018-03-24T11:54:41.216Z,12.40
2018-03-24T11:59:26.524Z,12.50
2018-03-24T12:04:09.867Z,12.40
2018-03-24T12:08:56.956Z,12.90
2018-03-24T12:13:41.319Z,12.90
2018-03-24T12:18:24.720Z,12.20
2018-03-24T12:23:08.116Z,12.20
2018-03-24T12:27:51.502Z,11.50
2018-03-24T12:32:34.850Z,11.70
2018-03-24T12:37:18.201Z,11.50
2018-03-24T12:42:02.325Z,11.40
2018-03-24T12:46:45.714Z,11.40
2018-03-24T12:56:17.825Z,10.90
2018-03-24T13:01:01.184Z,10.90
2018-03-24T13:05:45.779Z,10.80
2018-03-24T13:10:29.677Z,10.80
2018-03-24T13:15:13.997Z,11.00
2018-03-24T13:19:57.881Z,11.40
2018-03-24T13:24:42.038Z,11.30
2018-03-24T13:29:26.903Z,11.30
2018-03-24T13:34:10.237Z,11.20
2018-03-24T13:38:53.684Z,10.90
2018-03-24T13:43:37.040Z,10.70
2018-03-24T13:48:20.803Z,10.70
2018-03-24T13:53:04.113Z,10.40
2018-03-24T13:57:47.455Z,10.20
2018-03-24T14:02:30.822Z,10.10
2018-03-24T14:07:14.160Z,9.70
2018-03-24T14:11:57.506Z,9.20
2018-03-24T14:16:40.910Z,9.20
2018-03-24T14:21:25.033Z,9.30
2018-03-24T14:26:09.151Z,9.60
2018-03-24T14:30:54.292Z,9.60
2018-03-24T14:35:37.890Z,9.90
2018-03-24T14:40:21.344Z,9.80
2018-03-24T14:45:04.911Z,9.90
2018-03-24T14:49:49.065Z,9.80
2018-03-24T14:54:32.488Z,9.70
2018-03-24T14:59:15.942Z,9.50
2018-03-24T15:03:59.518Z,9.50
2018-03-24T15:08:42.935Z,9.50
2018-03-24T15:13:26.325Z,9.50
2018-03-24T15:18:09.670Z,10.00
2018-03-24T15:22:53.023Z,10.40
2018-03-24T15:27:36.487Z,10.90
2018-03-24T15:32:31.691Z,10.90
2018-03-24T15:37:15.075Z,10.50
2018-03-24T15:41:59.223Z,10.40
2018-03-24T15:46:43.390Z,10.30
2018-03-24T15:51:27.635Z,10.00
2018-03-24T15:56:11.723Z,9.90
2018-03-24T16:00:55.398Z,9.90
2018-03-24T16:05:38.697Z,9.10
2018-03-24T16:10:22.902Z,8.70
2018-03-24T16:15:06.309Z,8.70
2018-03-24T16:19:49.712Z,8.60
2018-03-24T16:24:34.145Z,8.30
2018-03-24T16:29:17.610Z,8.30
2018-03-24T16:34:01.729Z,8.00
2018-03-24T16:38:45.143Z,8.00
2018-03-24T16:43:29.585Z,7.40
2018-03-24T16:48:13.025Z,7.40
2018-03-24T16:52:56.375Z,7.00
2018-03-24T16:57:39.802Z,6.60
2018-03-24T17:02:23.439Z,6.20
2018-03-24T17:07:06.855Z,5.90
2018-03-24T17:11:50.328Z,5.50
2018-03-24T17:16:33.648Z,5.30
2018-03-24T17:21:17.115Z,5.00
2018-03-24T17:26:00.614Z,4.70
2018-03-24T17:30:44.046Z,4.50
2018-03-24T17:35:27.457Z,4.30
2018-03-24T17:40:10.983Z,4.10
2018-03-24T17:44:54.657Z,3.70
2018-03-24T17:49:39.522Z,3.70
2018-03-24T17:54:24.019Z,3.40
2018-03-24T17:59:09.276Z,3.30
2018-03-24T18:03:59.490Z,3.40
2018-03-24T18:08:43.614Z,3.50
2018-03-24T18:13:27.855Z,3.40
2018-03-24T18:18:12.404Z,3.40
2018-03-24T18:22:56.805Z,3.40
2018-03-24T18:27:49.376Z,3.30
2018-03-24T18:32:33.406Z,3.40
2018-03-24T18:37:17.230Z,3.50
2018-03-24T18:42:01.881Z,3.70
2018-03-24T18:46:45.503Z,3.80
2018-03-24T18:51:29.082Z,3.90
2018-03-24T18:56:13.182Z,3.90
2018-03-24T19:00:57.161Z,3.70
2018-03-24T19:05:41.503Z,3.60
2018-03-24T19:10:26.702Z,3.60
2018-03-24T19:15:10.682Z,3.60
2018-03-24T19:19:56.552Z,3.70
2018-03-24T19:24:43.751Z,3.70
2018-03-24T19:29:28.170Z,3.50
2018-03-24T19:34:27.644Z,3.30
2018-03-24T19:39:13.525Z,2.90
2018-03-24T19:43:57.322Z,2.30
2018-03-24T19:48:44.447Z,1.90
2018-03-24T19:53:29.263Z,1.80
2018-03-24T19:58:14.035Z,1.80
2018-03-24T20:02:59.418Z,1.70
2018-03-24T20:07:44.112Z,1.70
2018-03-24T20:12:28.489Z,1.70
2018-03-24T20:17:12.929Z,1.70
2018-03-24T20:21:56.471Z,1.90
2018-03-24T20:26:39.873Z,1.80
2018-03-24T20:31:23.337Z,1.50
2018-03-24T20:36:09.342Z,1.20
2018-03-24T20:40:52.667Z,1.20
2018-03-24T20:45:36.277Z,1.30
2018-03-24T20:50:19.647Z,1.20
2018-03-24T20:55:03.412Z,1.20
2018-03-24T20:59:47.670Z,1.10
2018-03-24T21:04:31.080Z,1.20
2018-03-24T21:09:14.529Z,1.10
2018-03-24T21:13:58.799Z,1.10
2018-03-24T21:18:42.102Z,1.10
2018-03-24T21:23:26.221Z,1.10
2018-03-24T21:28:09.578Z,1.10
2018-03-24T21:32:52.944Z,1.20
2018-03-24T21:37:36.556Z,1.20
2018-03-24T21:42:19.894Z,1.10
2018-03-24T21:47:03.269Z,1.00
2018-03-24T21:51:47.354Z,0.90
2018-03-24T21:56:30.993Z,0.90
2018-03-24T22:01:14.324Z,0.90
2018-03-24T22:05:57.668Z,1.00
2018-03-24T22:10:41.011Z,0.90
2018-03-24T22:15:24.416Z,0.80
2018-03-24T22:20:08.045Z,0.70
2018-03-24T22:24:51.384Z,0.50
2018-03-24T22:29:34.705Z,0.20
2018-03-24T22:34:18.048Z,0.30
2018-03-24T22:39:01.468Z,0.20
2018-03-24T22:43:44.790Z,0.10
2018-03-24T22:48:28.942Z,-0.10
2018-03-24T22:53:12.311Z,-0.10
2018-03-24T22:57:55.886Z,-0.30
2018-03-24T23:02:39.216Z,-0.40
2018-03-24T23:07:22.582Z,-0.80
2018-03-24T23:12:06.026Z,-1.20
2018-03-24T23:16:49.365Z,-1.50
2018-03-24T23:21:32.951Z,-1.80
2018-03-24T23:26:16.340Z,-2.00
2018-03-24T23:30:59.701Z,-2.00
2018-03-24T23:35:43.052Z,-2.20
2018-03-24T23:40:26.410Z,-2.00
2018-03-24T23:45:10.474Z,-2.20
